createdAt,value
2023-02-15T00:00:03.206Z,47.05
2023-02-15T00:02:42.482Z,47.95
2023-02-15T00:05:17.152Z,50.75
2023-02-15T00:07:54.415Z,51.85
2023-02-15T00:10:29.753Z,47.23
2023-02-15T00:13:05.051Z,42.05
2023-02-15T00:15:39.561Z,48.03
2023-02-15T00:18:14.318Z,48.93
2023-02-15T00:20:48.307Z,47.90
2023-02-15T00:23:24.986Z,48.72
2023-02-15T00:26:08.617Z,72.72
2023-02-15T00:28:43.350Z,49.90
2023-02-15T00:31:17.392Z,54.25
2023-02-15T00:33:52.125Z,58.58
2023-02-15T00:36:27.089Z,58.15
2023-02-15T00:39:03.898Z,51.40
2023-02-15T00:41:38.327Z,59.17
2023-02-15T00:44:12.145Z,55.90
2023-02-15T00:46:49.062Z,73.60
2023-02-15T00:49:22.314Z,58.15
2023-02-15T00:51:56.131Z,67.18
2023-02-15T00:54:32.838Z,61.03
2023-02-15T00:57:07.150Z,53.72
2023-02-15T00:59:41.147Z,60.27
2023-02-15T01:02:15.119Z,61.67
2023-02-15T01:04:49.170Z,67.40
2023-02-15T01:07:24.237Z,67.78
2023-02-15T01:10:00.760Z,79.55
2023-02-15T01:12:35.105Z,107.43
2023-02-15T01:15:09.580Z,74.15
2023-02-15T01:17:46.802Z,66.28
2023-02-15T01:22:55.693Z,82.53
2023-02-15T01:25:33.010Z,64.07
2023-02-15T01:28:07.831Z,57.97
2023-02-15T01:30:42.439Z,67.85
2023-02-15T01:33:19.147Z,63.13
2023-02-15T01:35:57.293Z,64.90
2023-02-15T01:38:31.378Z,62.05
2023-02-15T01:41:21.372Z,61.22
2023-02-15T01:43:57.282Z,68.60
2023-02-15T01:46:34.980Z,70.87
2023-02-15T01:49:12.941Z,69.97
2023-02-15T01:51:48.287Z,69.70
2023-02-15T01:54:25.961Z,62.20
2023-02-15T01:57:04.726Z,59.90
2023-02-15T01:59:39.437Z,77.70
2023-02-15T02:02:14.237Z,79.90
2023-02-15T02:04:50.200Z,80.30
2023-02-15T02:07:27.572Z,78.72
2023-02-15T02:10:02.120Z,84.35
2023-02-15T02:12:39.920Z,69.30
2023-02-15T02:15:16.214Z,66.95
2023-02-15T02:18:03.531Z,64.18
2023-02-15T02:20:55.280Z,72.03
2023-02-15T02:23:32.092Z,70.00
2023-02-15T02:26:26.897Z,64.18
2023-02-15T02:29:30.820Z,79.30
2023-02-15T02:32:04.453Z,76.95
2023-02-15T02:34:43.070Z,82.28
2023-02-15T02:37:20.598Z,81.87
2023-02-15T02:39:51.237Z,73.07
2023-02-15T02:42:27.587Z,72.28
2023-02-15T02:45:04.169Z,88.57
2023-02-15T02:47:40.133Z,78.65
2023-02-15T02:50:17.675Z,70.43
2023-02-15T02:52:52.534Z,81.15
2023-02-15T02:55:28.587Z,77.30
2023-02-15T02:58:07.449Z,98.13
2023-02-15T03:00:44.361Z,104.85
2023-02-15T03:03:23.460Z,70.15
2023-02-15T03:06:03.365Z,72.15
2023-02-15T03:08:43.396Z,70.43
2023-02-15T03:11:18.853Z,60.20
2023-02-15T03:14:12.194Z,76.00
2023-02-15T03:35:13.543Z,61.05
2023-02-15T03:59:00.162Z,59.55
2023-02-15T04:05:21.175Z,59.53
2023-02-15T07:02:41.656Z,136.65
2023-02-15T07:05:17.512Z,142.43
2023-02-15T07:07:52.434Z,122.60
2023-02-15T07:10:27.226Z,87.47
2023-02-15T07:12:58.509Z,77.03
2023-02-15T07:15:35.886Z,115.33
2023-02-15T07:18:13.072Z,238.40
2023-02-15T07:20:47.199Z,226.90
2023-02-15T07:23:21.231Z,202.93
2023-02-15T07:26:01.294Z,122.97
2023-02-15T07:28:36.701Z,73.65
2023-02-15T07:31:11.199Z,67.53
2023-02-15T07:33:47.832Z,71.00
2023-02-15T07:36:22.221Z,69.27
2023-02-15T07:38:56.090Z,53.67
2023-02-15T07:41:30.072Z,50.67
2023-02-15T07:44:04.146Z,58.15
2023-02-15T07:46:37.363Z,47.47
2023-02-15T07:49:13.751Z,49.60
2023-02-15T07:51:48.174Z,58.95
2023-02-15T07:54:22.275Z,63.28
2023-02-15T07:56:56.123Z,62.75
2023-02-15T07:59:30.169Z,54.28
2023-02-15T08:02:04.077Z,65.30
2023-02-15T08:04:40.770Z,68.75
2023-02-15T08:07:15.459Z,50.58
2023-02-15T08:09:50.091Z,52.10
2023-02-15T08:12:24.263Z,45.80
2023-02-15T08:14:58.427Z,45.25
2023-02-15T08:17:32.151Z,52.80
2023-02-15T08:20:09.962Z,49.92
2023-02-15T08:22:44.500Z,49.95
2023-02-15T08:25:22.063Z,47.47
2023-02-15T08:27:56.228Z,40.90
2023-02-15T08:30:30.147Z,43.85
2023-02-15T08:33:04.685Z,43.75
2023-02-15T08:35:41.690Z,44.90
2023-02-15T08:38:16.611Z,42.88
2023-02-15T08:40:51.148Z,40.90
2023-02-15T08:43:25.180Z,41.40
2023-02-15T08:45:59.237Z,39.15
2023-02-15T08:48:33.365Z,38.35
2023-02-15T08:51:14.866Z,35.40
2023-02-15T08:53:50.129Z,40.30
2023-02-15T08:56:25.608Z,34.90
2023-02-15T08:59:00.251Z,37.60
2023-02-15T09:01:35.442Z,39.07
2023-02-15T09:04:11.652Z,44.27
2023-02-15T09:09:23.314Z,38.35
2023-02-15T09:11:59.547Z,38.45
2023-02-15T09:14:34.224Z,39.08
2023-02-15T09:17:08.105Z,42.20
2023-02-15T09:19:42.101Z,35.07
2023-02-15T09:22:18.686Z,34.53
2023-02-15T09:24:53.105Z,35.03
2023-02-15T09:27:27.104Z,35.30
2023-02-15T09:30:01.159Z,38.80
2023-02-15T09:32:35.123Z,39.83
2023-02-15T09:35:09.781Z,40.15
2023-02-15T09:37:46.878Z,37.30
2023-02-15T09:40:21.102Z,37.08
2023-02-15T09:43:13.618Z,38.10
2023-02-15T09:46:11.596Z,40.45
2023-02-15T09:48:46.410Z,39.38
2023-02-15T09:51:38.775Z,39.15
2023-02-15T09:54:28.499Z,38.90
2023-02-15T09:57:04.185Z,47.30
2023-02-15T09:59:41.350Z,37.47
2023-02-15T10:02:24.352Z,36.17
2023-02-15T10:04:58.352Z,35.38
2023-02-15T10:07:41.500Z,40.17
2023-02-15T10:10:23.334Z,35.97
2023-02-15T10:13:02.626Z,34.97
2023-02-15T10:15:53.270Z,35.28
2023-02-15T10:18:46.316Z,36.28
2023-02-15T10:21:26.115Z,36.78
2023-02-15T10:24:19.266Z,36.28
2023-02-15T10:26:55.763Z,37.55
2023-02-15T10:29:33.568Z,40.50
2023-02-15T10:32:13.915Z,36.63
2023-02-15T10:34:51.911Z,38.67
2023-02-15T10:37:43.729Z,32.00
2023-02-15T10:40:22.758Z,34.70
2023-02-15T10:43:18.355Z,39.37
2023-02-15T10:45:57.940Z,37.10
2023-02-15T10:48:54.737Z,36.45
2023-02-15T10:51:33.342Z,35.90
2023-02-15T10:54:13.493Z,37.42
2023-02-15T10:56:51.176Z,33.47
2023-02-15T10:59:54.593Z,35.25
2023-02-15T11:02:28.434Z,47.05
2023-02-15T11:05:07.428Z,35.88
2023-02-15T11:07:43.495Z,29.92
2023-02-15T11:12:55.699Z,33.37
2023-02-15T11:15:35.638Z,34.80
2023-02-15T11:18:13.685Z,32.45
2023-02-15T11:20:52.066Z,34.43
2023-02-15T11:23:26.148Z,35.63
2023-02-15T11:26:01.857Z,32.22
2023-02-15T11:28:38.358Z,34.30
2023-02-15T11:31:19.935Z,37.72
2023-02-15T11:33:55.597Z,32.67
2023-02-15T11:36:31.663Z,30.55
2023-02-15T11:41:43.239Z,34.28
2023-02-15T11:44:19.929Z,37.53
2023-02-15T11:46:56.889Z,31.63
2023-02-15T11:49:33.295Z,32.85
2023-02-15T11:52:06.185Z,34.60
2023-02-15T11:54:41.544Z,38.50
2023-02-15T11:57:19.250Z,37.73
2023-02-15T11:59:55.338Z,38.80
2023-02-15T12:02:31.837Z,36.28
2023-02-15T12:05:05.344Z,36.10
2023-02-15T12:07:40.567Z,38.00
2023-02-15T12:10:21.693Z,37.67
2023-02-15T12:13:13.039Z,43.30
2023-02-15T12:15:49.228Z,36.70
2023-02-15T12:18:38.826Z,36.22
2023-02-15T12:21:14.809Z,36.83
2023-02-15T12:26:29.080Z,35.67
2023-02-15T12:29:04.142Z,37.87
2023-02-15T12:31:40.919Z,40.38
2023-02-15T12:34:23.382Z,36.30
2023-02-15T12:36:59.238Z,37.08
2023-02-15T12:39:33.795Z,39.85
2023-02-15T12:42:09.326Z,38.33
2023-02-15T12:44:43.091Z,37.35
2023-02-15T12:47:28.848Z,34.28
2023-02-15T12:50:02.371Z,38.58
2023-02-15T12:52:38.810Z,33.67
2023-02-15T12:55:23.964Z,37.70
2023-02-15T12:58:11.243Z,41.53
2023-02-15T13:00:45.185Z,40.28
2023-02-15T13:03:21.958Z,39.05
2023-02-15T13:05:57.033Z,38.67
2023-02-15T13:08:35.656Z,38.00
2023-02-15T13:11:11.409Z,33.53
2023-02-15T13:13:54.336Z,37.65
2023-02-15T13:16:32.865Z,36.15
2023-02-15T13:19:08.298Z,34.20
2023-02-15T13:21:43.512Z,40.45
2023-02-15T13:24:23.199Z,35.40
2023-02-15T13:27:14.088Z,37.47
2023-02-15T13:29:50.613Z,35.17
2023-02-15T13:32:32.860Z,41.28
2023-02-15T13:35:08.391Z,38.90
2023-02-15T13:38:02.371Z,41.15
2023-02-15T13:40:36.505Z,39.23
2023-02-15T13:43:20.205Z,38.63
2023-02-15T13:46:05.376Z,37.67
2023-02-15T13:48:50.779Z,38.72
2023-02-15T13:51:26.398Z,36.72
2023-02-15T13:54:10.799Z,39.77
2023-02-15T13:56:52.229Z,39.87
2023-02-15T13:59:48.130Z,40.60
2023-02-15T14:02:40.996Z,39.53
2023-02-15T14:05:32.883Z,37.67
2023-02-15T14:08:12.641Z,38.75
2023-02-15T14:10:50.000Z,46.53
2023-02-15T14:13:52.206Z,39.17
2023-02-15T14:16:35.003Z,36.30
2023-02-15T14:19:08.414Z,40.30
2023-02-15T14:21:46.650Z,38.65
2023-02-15T14:24:27.377Z,34.42
2023-02-15T14:27:08.402Z,40.13
2023-02-15T14:29:49.456Z,34.58
2023-02-15T14:32:30.910Z,37.33
2023-02-15T14:35:05.597Z,34.20
2023-02-15T14:37:44.056Z,38.17
2023-02-15T14:40:35.633Z,35.73
2023-02-15T14:43:12.111Z,37.45
2023-02-15T14:46:00.438Z,36.87
2023-02-15T14:48:40.663Z,35.40
2023-02-15T14:51:16.129Z,35.83
2023-02-15T14:53:50.177Z,35.97
2023-02-15T14:56:29.809Z,37.42
2023-02-15T14:59:23.071Z,33.78
2023-02-15T15:01:53.482Z,38.47
2023-02-15T15:04:32.662Z,32.90
2023-02-15T15:07:12.684Z,33.53
2023-02-15T15:09:46.380Z,33.92
2023-02-15T15:12:41.941Z,36.75
2023-02-15T15:15:18.529Z,37.17
2023-02-15T15:18:00.422Z,39.00
2023-02-15T15:21:07.125Z,35.75
2023-02-15T15:23:49.884Z,37.60
2023-02-15T15:26:34.413Z,38.15
2023-02-15T15:29:08.248Z,37.17
2023-02-15T15:31:45.791Z,33.97
2023-02-15T15:35:02.177Z,36.33
2023-02-15T15:37:58.783Z,35.35
2023-02-15T15:40:46.255Z,39.42
2023-02-15T15:43:59.036Z,36.83
2023-02-15T15:46:54.849Z,41.88
2023-02-15T15:49:31.958Z,37.20
2023-02-15T15:52:06.594Z,39.67
2023-02-15T15:54:43.924Z,60.70
2023-02-15T15:57:19.821Z,54.30
2023-02-15T15:59:54.801Z,53.97
2023-02-15T16:02:29.169Z,48.40
2023-02-15T16:05:11.006Z,41.25
2023-02-15T16:07:45.451Z,38.33
2023-02-15T16:10:27.534Z,39.50
2023-02-15T16:13:02.170Z,42.78
2023-02-15T16:15:39.349Z,49.40
2023-02-15T16:18:15.978Z,40.88
2023-02-15T16:20:54.290Z,47.75
2023-02-15T16:23:49.771Z,48.90
2023-02-15T16:26:36.371Z,79.00
2023-02-15T16:32:03.495Z,58.50
2023-02-15T16:34:37.269Z,55.95
2023-02-15T16:37:18.524Z,54.90
2023-02-15T16:39:52.176Z,70.03
2023-02-15T16:42:31.270Z,78.27
2023-02-15T16:45:06.970Z,71.60
2023-02-15T16:47:43.803Z,70.68
2023-02-15T16:50:21.774Z,69.85
2023-02-15T16:52:56.198Z,76.30
2023-02-15T16:55:26.611Z,61.58
2023-02-15T16:58:05.725Z,50.80
2023-02-15T17:00:42.556Z,49.38
2023-02-15T17:03:25.487Z,57.03
2023-02-15T17:05:59.882Z,61.63
2023-02-15T17:08:35.094Z,62.93
2023-02-15T17:11:18.339Z,63.97
2023-02-15T17:14:25.880Z,55.85
2023-02-15T17:19:44.502Z,65.95
2023-02-15T17:22:22.251Z,66.25
2023-02-15T17:25:02.106Z,52.85
2023-02-15T17:27:36.397Z,54.90
2023-02-15T17:30:18.279Z,59.50
2023-02-15T17:32:57.185Z,43.25
2023-02-15T17:35:31.618Z,55.30
2023-02-15T17:38:08.322Z,51.80
2023-02-15T17:40:42.759Z,49.83
2023-02-15T17:43:20.266Z,49.90
2023-02-15T17:45:57.336Z,43.78
2023-02-15T17:48:35.198Z,53.38
2023-02-15T17:51:11.775Z,51.30
2023-02-15T17:54:09.544Z,61.00
2023-02-15T17:56:41.732Z,66.30
2023-02-15T17:59:16.924Z,86.30
2023-02-15T18:02:06.404Z,86.10
2023-02-15T18:04:53.108Z,96.53
2023-02-15T18:07:39.660Z,82.28
2023-02-15T18:13:02.521Z,57.63
2023-02-15T18:15:37.899Z,65.32
2023-02-15T18:18:16.644Z,70.50
2023-02-15T18:20:51.512Z,80.97
2023-02-15T18:23:25.383Z,88.10
2023-02-15T18:26:00.641Z,80.80
2023-02-15T18:28:33.203Z,82.80
2023-02-15T18:31:08.192Z,78.35
2023-02-15T18:33:47.632Z,74.10
2023-02-15T18:36:24.537Z,81.18
2023-02-15T18:38:59.452Z,75.45
2023-02-15T18:41:33.240Z,69.60
2023-02-15T18:44:11.344Z,68.55
2023-02-15T18:46:45.452Z,70.68
2023-02-15T18:49:22.084Z,72.23
2023-02-15T18:51:56.941Z,77.70
2023-02-15T18:54:31.665Z,75.53
2023-02-15T18:57:06.537Z,83.05
2023-02-15T18:59:41.381Z,72.65
2023-02-15T19:02:17.217Z,71.15
2023-02-15T19:04:54.114Z,71.97
2023-02-15T19:07:30.075Z,80.77
2023-02-15T19:10:04.471Z,66.83
2023-02-15T19:12:38.380Z,69.80
2023-02-15T19:15:17.801Z,66.07
2023-02-15T19:17:52.600Z,67.20
2023-02-15T19:20:33.028Z,66.68
2023-02-15T19:23:07.919Z,65.15
2023-02-15T19:25:42.843Z,64.65
2023-02-15T19:28:20.654Z,63.85
2023-02-15T19:30:59.417Z,59.28
2023-02-15T19:33:35.054Z,61.70
2023-02-15T19:36:15.402Z,70.05
2023-02-15T19:38:51.283Z,67.30
2023-02-15T19:41:29.785Z,69.63
2023-02-15T19:44:04.538Z,65.85
2023-02-15T19:46:44.877Z,68.63
2023-02-15T19:49:20.174Z,60.33
2023-02-15T19:51:57.366Z,80.43
2023-02-15T19:54:36.417Z,120.57
2023-02-15T19:57:14.644Z,95.97
2023-02-15T19:59:54.122Z,119.43
2023-02-15T20:02:31.819Z,116.50
2023-02-15T20:05:08.683Z,102.00
2023-02-15T20:07:47.685Z,97.00
2023-02-15T20:10:28.414Z,104.55
2023-02-15T20:13:02.700Z,87.07
2023-02-15T20:15:40.100Z,92.78
2023-02-15T20:18:22.689Z,95.15
2023-02-15T20:20:58.717Z,89.60
2023-02-15T20:26:34.540Z,87.75
2023-02-15T20:29:19.724Z,93.05
2023-02-15T20:32:06.092Z,92.73
2023-02-15T20:34:45.854Z,90.03
2023-02-15T20:37:29.528Z,90.20
2023-02-15T20:40:12.280Z,86.70
2023-02-15T20:42:59.237Z,82.63
2023-02-15T20:45:37.599Z,73.23
2023-02-15T20:48:20.117Z,86.47
2023-02-15T20:51:05.306Z,75.93
2023-02-15T20:53:40.114Z,78.50
2023-02-15T20:56:17.350Z,80.40
2023-02-15T20:58:56.115Z,97.65
2023-02-15T21:01:35.419Z,91.60
2023-02-15T21:04:16.059Z,87.00
2023-02-15T21:06:53.306Z,80.10
2023-02-15T21:09:28.048Z,73.50
2023-02-15T21:12:04.002Z,64.78
2023-02-15T21:14:41.391Z,73.90
2023-02-15T21:17:16.879Z,77.88
2023-02-15T21:19:52.037Z,99.95
2023-02-15T21:22:27.218Z,101.95
2023-02-15T21:25:04.051Z,92.65
2023-02-15T21:27:39.194Z,92.18
2023-02-15T21:30:22.183Z,87.50
2023-02-15T21:32:57.031Z,89.20
2023-02-15T21:35:28.069Z,92.03
2023-02-15T21:38:03.540Z,87.25
2023-02-15T21:40:39.491Z,95.28
2023-02-15T21:43:30.805Z,85.15
2023-02-15T21:46:30.933Z,72.47
2023-02-15T21:49:07.755Z,89.28
2023-02-15T21:51:55.186Z,91.55
2023-02-15T21:54:31.782Z,94.25
2023-02-15T21:57:07.578Z,103.55
2023-02-15T21:59:43.223Z,100.82
2023-02-15T22:02:33.744Z,93.25
2023-02-15T22:05:12.648Z,92.50
2023-02-15T22:07:47.488Z,91.50
2023-02-15T22:10:22.991Z,78.15
2023-02-15T22:13:00.617Z,83.78
2023-02-15T22:15:34.530Z,83.00
2023-02-15T22:18:17.335Z,85.47
2023-02-15T22:20:52.046Z,73.10
2023-02-15T22:23:27.156Z,82.50
2023-02-15T22:26:02.383Z,87.80
2023-02-15T22:28:37.582Z,104.10
2023-02-15T22:31:15.609Z,96.73
2023-02-15T22:33:55.683Z,99.35
2023-02-15T22:36:31.798Z,106.03
2023-02-15T22:39:06.612Z,105.03
2023-02-15T22:41:41.685Z,102.50
2023-02-15T22:44:16.632Z,97.55
2023-02-15T22:46:51.935Z,100.40
2023-02-15T22:49:29.119Z,102.80
2023-02-15T22:52:03.604Z,103.60
2023-02-15T22:54:38.440Z,102.30
2023-02-15T22:57:12.764Z,99.83
2023-02-15T22:59:45.466Z,104.85
2023-02-15T23:02:19.618Z,112.90
2023-02-15T23:04:57.123Z,90.93
2023-02-15T23:07:31.664Z,105.78
2023-02-15T23:10:03.727Z,111.05
2023-02-15T23:13:03.377Z,102.30
2023-02-15T23:15:37.771Z,101.93
2023-02-15T23:18:20.264Z,106.90
2023-02-15T23:20:58.240Z,108.70
2023-02-15T23:23:35.898Z,90.70
2023-02-15T23:26:15.518Z,89.40
2023-02-15T23:28:49.777Z,88.60
2023-02-15T23:31:25.534Z,91.43
2023-02-15T23:34:00.382Z,85.65
2023-02-15T23:36:37.915Z,102.80
2023-02-15T23:39:28.197Z,86.05
2023-02-15T23:42:02.658Z,82.57
2023-02-15T23:44:37.352Z,105.65
2023-02-15T23:47:17.962Z,85.63
2023-02-15T23:49:54.747Z,86.63
2023-02-15T23:52:32.069Z,79.75
2023-02-15T23:55:06.409Z,91.55
2023-02-15T23:57:40.621Z,102.50
